Hovedside
METAR-TAF:

METAR-TAF

Lufthavner :

Uppsala, Sverige

breddegrad: 59-53N, lengdegrad: 017-36E, høyde over havet: 21 m

Gjeldene værobservasjon

Denne rapporten ble laget for 44 minutter siden, klokken 05:50 UTC
Vind 3 kt fra Øst, skiftende mellom Øst-nordøst og Sør
Temperatur 2°C
Luftfuktighet 100%
Trykk 1023 hPa
Sikt: 8000 m
dis

METAR: ESCM 150550Z AUTO 08003KT 060V170 8000 BR OVC009/// 02/02 Q1023

Tid: 07:34 (06:34 UTC)

Varsel

Denne rapporten ble laget for 19 timer og 9 minutter siden, klokken 11:25 UTC
Varsel gyldig fra 14. klokken 12 UTC til 14. klokken 21 UTC
Vind 7 kt fra Vest-nordvest
Sikt: 3000 m
Brutte skyer i en høyde av 200 ft
duskregn, regn, dis
Sannsynlighet 30%
fra 14. klokken 12 UTC til 14. klokken 21 UTC
Sikt 10 km eller mer
Brutte skyer i en høyde av 1500 ft

TAF: ESCM 141125Z 1412/1421 30007KT 3000 DZRA BR BKN002 PROB30 1412/1421 9999 NSW BKN015 RMK MIL

Værobservasjoner og værvarsel for over 4000 flyplasser (METAR- og TAF-rapporter).

Tilgjengelige stasjoner er representert av de røde og gule prikkene på kartet.

Hold musepekeren over prikken for å se navnet på stasjonen.

Klikk så for å se værobservasjoner og -varsler.

For å forandre kartet kan du klikke på den grønne knappen med svart kryss for å zoome inn, på den grønne knappen med strek for å zoome ut, eller på de grønne pilene for å se tilstøtende kart.


METAR-TAF: